Time;durP1;ratioP1;P1;durP2;ratioP2;P2;SDS_P1;SDS_P2;PMS_P1;PMS_P2;Temp;Humidity;BMP_temperature;BMP_pressure;BME280_temperature;BME280_humidity;BME280_pressure;Samples;Min_cycle;Max_cycle;Signal;HPM_P1;HPM_P2
2022/03/03 00:01:51;;;;;;;24.33;18.40;;;12.00;51.30;;;;;;5074305;28;20484;-63
2022/03/03 00:04:17;;;;;;;23.20;18.23;;;12.10;51.40;;;;;;5073832;28;20024;-64
2022/03/03 00:06:43;;;;;;;24.23;18.17;;;12.00;51.30;;;;;;5074156;28;20043;-63
2022/03/03 00:09:10;;;;;;;21.92;18.45;;;12.00;51.60;;;;;;5074223;28;20103;-63
2022/03/03 00:11:35;;;;;;;22.17;19.10;;;11.90;51.80;;;;;;5074003;28;20025;-63
2022/03/03 00:14:01;;;;;;;22.02;18.67;;;12.00;51.70;;;;;;5073964;28;20027;-68
2022/03/03 00:16:27;;;;;;;24.42;19.50;;;11.90;51.70;;;;;;5074077;28;20104;-63
2022/03/03 00:18:53;;;;;;;24.35;18.55;;;11.90;51.90;;;;;;5073355;28;20428;-64
2022/03/03 00:21:18;;;;;;;22.33;18.77;;;11.80;51.90;;;;;;5073977;28;20040;-64
2022/03/03 00:23:44;;;;;;;23.88;19.17;;;11.80;52.10;;;;;;5073801;28;20095;-63
2022/03/03 00:26:10;;;;;;;23.67;19.77;;;11.80;52.10;;;;;;5074050;28;20078;-63
2022/03/03 00:28:35;;;;;;;22.08;19.70;;;11.70;52.20;;;;;;5073816;28;20024;-74
2022/03/03 00:31:01;;;;;;;23.23;19.48;;;11.70;52.40;;;;;;5073646;28;20367;-71
2022/03/03 00:33:27;;;;;;;26.67;19.50;;;11.60;52.50;;;;;;5073549;28;20032;-74
2022/03/03 00:35:52;;;;;;;21.08;18.40;;;11.70;52.70;;;;;;5073378;28;20416;-63
2022/03/03 00:38:18;;;;;;;22.05;19.13;;;11.60;52.50;;;;;;5072954;28;20024;-63
2022/03/03 00:40:44;;;;;;;20.75;18.52;;;11.70;52.70;;;;;;5073627;28;20025;-63
2022/03/03 00:43:09;;;;;;;23.42;18.10;;;11.60;52.70;;;;;;5073459;28;20382;-63
2022/03/03 00:45:36;;;;;;;25.95;20.20;;;11.60;52.70;;;;;;5073477;28;20059;-68
2022/03/03 00:48:03;;;;;;;26.55;19.10;;;11.50;52.70;;;;;;5072749;28;20051;-63
2022/03/03 00:50:28;;;;;;;24.63;19.05;;;11.50;52.80;;;;;;5073476;28;20028;-63
2022/03/03 00:52:54;;;;;;;25.27;18.75;;;11.50;52.90;;;;;;5073507;28;20130;-64
2022/03/03 00:55:20;;;;;;;27.40;19.38;;;11.50;53.00;;;;;;5073320;28;20021;-74
2022/03/03 00:57:45;;;;;;;21.23;18.50;;;11.50;53.10;;;;;;5073479;28;20028;-64
2022/03/03 01:00:12;;;;;;;23.88;19.70;;;11.50;53.10;;;;;;5073015;28;20080;-65
2022/03/03 01:02:38;;;;;;;25.50;20.38;;;11.50;53.30;;;;;;5073101;28;20094;-65
2022/03/03 01:05:04;;;;;;;26.80;19.13;;;11.40;53.20;;;;;;5073168;28;20474;-75
2022/03/03 01:07:31;;;;;;;23.70;19.15;;;11.40;53.30;;;;;;5073147;28;20043;-64
2022/03/03 01:09:57;;;;;;;23.17;18.70;;;11.40;53.40;;;;;;5073028;28;20078;-75
2022/03/03 01:12:22;;;;;;;23.50;18.67;;;11.40;53.50;;;;;;5073270;28;20389;-65
2022/03/03 01:14:48;;;;;;;30.88;19.80;;;11.40;53.40;;;;;;5072916;28;20519;-64
2022/03/03 01:17:14;;;;;;;22.50;19.88;;;11.40;53.60;;;;;;5072829;28;20060;-64
2022/03/03 01:19:41;;;;;;;26.77;19.77;;;11.40;53.80;;;;;;5072940;28;20461;-63
2022/03/03 01:22:06;;;;;;;24.10;19.88;;;11.40;53.80;;;;;;5073017;28;20082;-63
2022/03/03 01:24:32;;;;;;;22.38;18.80;;;11.40;53.90;;;;;;5072926;28;20080;-64
2022/03/03 01:26:58;;;;;;;25.08;20.48;;;11.30;54.20;;;;;;5072914;28;20097;-64
2022/03/03 01:29:24;;;;;;;24.10;19.02;;;11.20;54.30;;;;;;5072982;28;20473;-64
2022/03/03 01:31:50;;;;;;;22.38;19.58;;;11.20;54.50;;;;;;5072702;28;20492;-64
2022/03/03 01:34:15;;;;;;;22.67;19.00;;;11.30;54.40;;;;;;5072897;28;20032;-65
2022/03/03 01:36:41;;;;;;;25.42;19.98;;;11.20;54.50;;;;;;5072932;28;20362;-65
2022/03/03 01:39:07;;;;;;;25.27;20.27;;;11.20;54.50;;;;;;5073147;28;20047;-75
2022/03/03 01:41:33;;;;;;;25.35;19.90;;;11.20;54.70;;;;;;5072768;28;20097;-74
2022/03/03 01:43:59;;;;;;;24.67;18.75;;;11.20;54.50;;;;;;5072923;28;20541;-63
2022/03/03 01:46:25;;;;;;;22.33;19.73;;;11.20;54.80;;;;;;5072280;28;20070;-70
2022/03/03 01:48:50;;;;;;;27.30;20.17;;;11.20;55.10;;;;;;5072805;28;20031;-65
2022/03/03 01:51:16;;;;;;;27.98;19.20;;;11.20;54.80;;;;;;5076664;28;20064;-64
2022/03/03 01:53:42;;;;;;;23.52;19.60;;;11.20;55.00;;;;;;5076857;28;20023;-66
2022/03/03 01:56:08;;;;;;;25.58;19.05;;;11.20;55.10;;;;;;5076759;28;20032;-67
2022/03/03 01:58:36;;;;;;;21.83;19.45;;;11.20;55.30;;;;;;5078441;28;20031;-71
2022/03/03 02:01:01;;;;;;;23.25;19.10;;;11.20;55.50;;;;;;5075222;28;20020;-65
2022/03/03 02:03:27;;;;;;;24.50;19.67;;;11.20;55.50;;;;;;5075970;28;20078;-65
2022/03/03 02:05:53;;;;;;;25.58;19.50;;;11.20;55.80;;;;;;5076525;28;20466;-62
2022/03/03 02:08:18;;;;;;;22.85;19.17;;;11.10;55.80;;;;;;5076229;28;20043;-63
2022/03/03 02:10:44;;;;;;;22.88;19.35;;;11.10;56.40;;;;;;5076425;28;20024;-73
2022/03/03 02:13:09;;;;;;;23.27;19.50;;;11.10;55.90;;;;;;5076430;28;20116;-65
2022/03/03 02:15:35;;;;;;;24.42;18.90;;;11.10;56.30;;;;;;5076144;28;20032;-76
2022/03/03 02:18:01;;;;;;;23.52;20.42;;;11.10;56.30;;;;;;5076069;28;20059;-65
2022/03/03 02:20:28;;;;;;;20.92;18.67;;;11.10;56.30;;;;;;5076187;28;20074;-65
2022/03/03 02:22:56;;;;;;;22.42;19.17;;;11.10;56.70;;;;;;5076181;28;20071;-65
2022/03/03 02:25:22;;;;;;;24.48;19.65;;;11.10;57.20;;;;;;5076295;28;20462;-65
2022/03/03 02:27:49;;;;;;;24.75;19.17;;;11.00;56.80;;;;;;5075981;28;20101;-76
2022/03/03 02:30:16;;;;;;;26.45;18.98;;;11.00;56.20;;;;;;5075776;28;20016;-65
2022/03/03 02:32:42;;;;;;;23.20;19.45;;;11.00;56.50;;;;;;5076079;28;20024;-64
2022/03/03 02:35:08;;;;;;;24.45;19.27;;;11.00;56.40;;;;;;5155758;22;20058;-62
2022/03/03 02:37:39;;;;;;;24.23;20.73;;;10.90;56.50;;;;;;5147924;22;20051;-62
2022/03/03 02:40:08;;;;;;;25.65;19.20;;;10.90;56.20;;;;;;5137279;27;20045;-62
2022/03/03 02:42:34;;;;;;;27.40;20.60;;;10.90;56.40;;;;;;5137018;27;20068;-62
2022/03/03 02:45:01;;;;;;;25.63;19.50;;;10.90;56.40;;;;;;5136936;27;20033;-68
2022/03/03 02:47:27;;;;;;;22.63;19.83;;;10.80;56.20;;;;;;5137034;27;20031;-62
2022/03/03 02:49:53;;;;;;;28.40;19.13;;;10.90;56.40;;;;;;5136978;27;20027;-66
2022/03/03 02:52:18;;;;;;;22.52;19.08;;;10.80;56.50;;;;;;5136876;27;20015;-62
2022/03/03 02:54:44;;;;;;;25.15;18.20;;;10.80;56.40;;;;;;5137017;27;20467;-68
2022/03/03 02:59:54;;;;;;;22.33;19.42;;;10.90;56.40;;;;;;5136776;27;20110;-62
2022/03/03 03:02:19;;;;;;;23.05;17.20;;;10.80;56.50;;;;;;5135894;27;20051;-63
2022/03/03 03:04:45;;;;;;;27.23;18.90;;;10.80;57.20;;;;;;5136855;27;20076;-62
2022/03/03 03:07:10;;;;;;;23.45;18.52;;;10.80;57.20;;;;;;5136579;27;20035;-63
2022/03/03 03:09:36;;;;;;;24.73;18.50;;;10.80;57.50;;;;;;5136373;27;20379;-63
2022/03/03 03:12:02;;;;;;;23.95;19.10;;;10.80;57.20;;;;;;5136513;27;20452;-63
2022/03/03 03:14:27;;;;;;;22.88;18.50;;;10.80;57.00;;;;;;5136488;27;20098;-64
2022/03/03 03:16:53;;;;;;;22.13;17.95;;;10.80;58.00;;;;;;5136374;27;20034;-65
2022/03/03 03:19:19;;;;;;;22.23;18.23;;;10.80;56.80;;;;;;5136539;27;20028;-65
2022/03/03 03:21:44;;;;;;;23.85;18.83;;;10.70;56.70;;;;;;5136424;27;20019;-64
2022/03/03 03:24:10;;;;;;;24.70;19.55;;;10.70;56.60;;;;;;5136423;27;20053;-67
2022/03/03 03:26:35;;;;;;;22.70;18.63;;;10.70;56.60;;;;;;5135908;27;20067;-67
2022/03/03 03:29:01;;;;;;;22.75;18.40;;;10.70;57.20;;;;;;5135931;27;20023;-63
2022/03/03 03:31:27;;;;;;;23.70;19.73;;;10.70;57.10;;;;;;5136362;27;20031;-68
2022/03/03 03:33:53;;;;;;;25.10;19.73;;;10.60;57.40;;;;;;5136115;27;20038;-67
2022/03/03 03:36:19;;;;;;;23.08;18.65;;;10.60;58.30;;;;;;5127230;27;20063;-65
2022/03/03 03:38:45;;;;;;;26.00;20.13;;;10.60;58.90;;;;;;5115249;28;20055;-63
2022/03/03 03:41:11;;;;;;;30.02;20.33;;;10.50;59.40;;;;;;5115372;28;20042;-67
2022/03/03 03:43:37;;;;;;;24.88;20.27;;;10.60;58.80;;;;;;5115242;28;20020;-63
2022/03/03 03:46:03;;;;;;;25.55;21.05;;;10.50;59.00;;;;;;5115546;28;20384;-66
2022/03/03 03:48:29;;;;;;;29.25;21.25;;;10.50;59.40;;;;;;5115233;28;20031;-67
2022/03/03 03:50:55;;;;;;;26.95;21.17;;;10.50;59.70;;;;;;5115196;28;20026;-67
2022/03/03 03:53:20;;;;;;;30.08;21.85;;;10.40;60.10;;;;;;5115197;28;20031;-67
2022/03/03 03:55:46;;;;;;;30.10;22.35;;;10.40;59.80;;;;;;5115025;28;20081;-67
2022/03/03 03:58:12;;;;;;;33.63;21.63;;;10.40;58.90;;;;;;5114939;28;20031;-67
2022/03/03 04:00:37;;;;;;;29.27;21.95;;;10.40;58.60;;;;;;5114921;28;20027;-67
2022/03/03 04:03:03;;;;;;;35.45;22.65;;;10.40;58.10;;;;;;5115119;28;20035;-67
2022/03/03 04:05:29;;;;;;;26.88;20.55;;;10.40;58.20;;;;;;5114857;28;20031;-68
2022/03/03 04:07:54;;;;;;;31.85;21.23;;;10.40;57.70;;;;;;5096526;28;20035;-64
2022/03/03 04:10:20;;;;;;;25.83;21.13;;;10.30;57.90;;;;;;5096182;28;20031;-65
2022/03/03 04:12:46;;;;;;;25.80;20.25;;;10.30;57.70;;;;;;5114102;28;20384;-64
2022/03/03 04:15:13;;;;;;;27.30;19.27;;;10.10;58.60;;;;;;5114506;28;20024;-66
2022/03/03 04:17:38;;;;;;;25.02;19.67;;;10.10;58.50;;;;;;5114733;28;20024;-69
2022/03/03 04:20:05;;;;;;;25.48;19.17;;;10.00;58.30;;;;;;5114376;28;20077;-64
2022/03/03 04:22:31;;;;;;;27.05;19.58;;;10.00;58.20;;;;;;5114763;28;20055;-63
2022/03/03 04:24:57;;;;;;;23.63;18.80;;;10.00;58.20;;;;;;5114592;28;20024;-69
2022/03/03 04:27:23;;;;;;;23.17;18.55;;;10.00;58.20;;;;;;5114401;28;20039;-70
2022/03/03 04:29:48;;;;;;;21.98;18.20;;;10.00;58.10;;;;;;5114499;28;20069;-70
2022/03/03 04:32:14;;;;;;;23.45;18.42;;;9.90;58.10;;;;;;5114614;28;20022;-70
2022/03/03 04:34:39;;;;;;;21.55;18.90;;;9.90;58.00;;;;;;5121407;22;20039;-67
2022/03/03 04:37:05;;;;;;;21.90;18.17;;;9.80;58.30;;;;;;5075584;28;20016;-64
2022/03/03 04:39:31;;;;;;;22.77;18.98;;;9.80;58.40;;;;;;5093474;28;20022;-70
2022/03/03 04:41:57;;;;;;;21.73;19.02;;;9.80;58.50;;;;;;5094065;28;20028;-71
2022/03/03 04:44:23;;;;;;;21.90;18.27;;;9.80;58.50;;;;;;5093873;28;20026;-69
2022/03/03 04:46:48;;;;;;;20.75;18.45;;;9.80;58.40;;;;;;5093655;28;20039;-63
2022/03/03 04:49:14;;;;;;;23.15;18.02;;;9.70;58.50;;;;;;5093881;28;20020;-66
2022/03/03 04:51:40;;;;;;;21.25;18.55;;;9.80;58.70;;;;;;5075453;28;20428;-63
2022/03/03 04:54:07;;;;;;;22.42;18.98;;;9.80;58.50;;;;;;5093518;28;20024;-70
2022/03/03 04:56:34;;;;;;;22.63;18.10;;;9.90;58.30;;;;;;5093378;28;20020;-71
2022/03/03 04:59:00;;;;;;;23.92;19.25;;;9.90;58.40;;;;;;5093673;28;20035;-69
2022/03/03 05:01:25;;;;;;;22.80;18.42;;;9.90;58.40;;;;;;5093489;28;20020;-69
2022/03/03 05:03:51;;;;;;;25.08;18.17;;;9.80;58.20;;;;;;5093477;28;20030;-69
2022/03/03 05:06:17;;;;;;;28.15;18.80;;;9.80;58.40;;;;;;5093202;28;20024;-70
2022/03/03 05:08:43;;;;;;;23.30;19.90;;;9.60;58.50;;;;;;5093236;28;20040;-70
2022/03/03 05:11:08;;;;;;;25.27;20.58;;;9.50;58.90;;;;;;5093345;28;20158;-70
2022/03/03 05:13:34;;;;;;;21.55;18.95;;;9.40;59.40;;;;;;5093562;28;20024;-66
2022/03/03 05:16:00;;;;;;;26.30;19.95;;;9.30;59.40;;;;;;5093333;28;20051;-69
2022/03/03 05:18:26;;;;;;;25.30;19.23;;;9.30;59.50;;;;;;5093355;28;20031;-70
2022/03/03 05:20:52;;;;;;;22.20;19.45;;;9.20;59.60;;;;;;5093336;28;20035;-70
2022/03/03 05:23:17;;;;;;;23.80;19.13;;;9.10;59.90;;;;;;5093087;28;20028;-62
2022/03/03 05:25:43;;;;;;;22.02;18.13;;;9.00;60.10;;;;;;5092820;28;20016;-62
2022/03/03 05:28:08;;;;;;;24.60;18.42;;;9.10;60.00;;;;;;5093290;28;20119;-63
2022/03/03 05:30:34;;;;;;;23.30;19.85;;;9.10;59.90;;;;;;5093131;28;20365;-63
2022/03/03 05:33:00;;;;;;;22.88;18.88;;;9.10;59.80;;;;;;5093206;28;20384;-62
2022/03/03 05:35:25;;;;;;;22.83;18.52;;;9.20;59.70;;;;;;5092696;28;20043;-63
2022/03/03 05:37:51;;;;;;;22.77;19.65;;;9.20;59.90;;;;;;5092931;28;20028;-62
2022/03/03 05:40:17;;;;;;;21.58;18.52;;;9.10;59.70;;;;;;5093059;28;20103;-63
2022/03/03 05:42:43;;;;;;;22.77;19.65;;;9.10;60.00;;;;;;5093075;28;20468;-63
2022/03/03 05:45:10;;;;;;;23.52;18.30;;;9.10;59.90;;;;;;5092021;28;20024;-62
2022/03/03 05:47:36;;;;;;;22.00;18.98;;;9.10;59.80;;;;;;5092663;28;20036;-63
2022/03/03 05:50:04;;;;;;;23.17;19.00;;;9.10;60.80;;;;;;5090982;28;20388;-64
2022/03/03 05:52:30;;;;;;;22.33;19.00;;;9.10;60.10;;;;;;5091375;28;20031;-63
2022/03/03 05:54:55;;;;;;;24.17;19.98;;;9.20;60.10;;;;;;5089837;28;20016;-70
2022/03/03 05:57:31;;;;;;;25.65;19.35;;;9.20;60.10;;;;;;5092597;28;20035;-68
2022/03/03 06:00:02;;;;;;;23.48;19.75;;;9.10;60.10;;;;;;5089927;28;20093;-69
2022/03/03 06:02:27;;;;;;;24.80;19.48;;;9.00;60.30;;;;;;5089562;28;20111;-63
2022/03/03 06:04:53;;;;;;;22.63;19.05;;;9.10;60.20;;;;;;5088208;28;20167;-66
2022/03/03 06:07:28;;;;;;;23.42;18.58;;;9.00;60.30;;;;;;5090222;28;20032;-70
2022/03/03 06:09:57;;;;;;;24.55;18.70;;;9.00;60.50;;;;;;5091844;28;20103;-70
2022/03/03 06:12:41;;;;;;;21.83;18.17;;;9.00;60.50;;;;;;5092742;28;20020;-63
2022/03/03 06:15:07;;;;;;;21.85;17.75;;;8.90;60.70;;;;;;5092396;28;20428;-66
2022/03/03 06:17:35;;;;;;;23.13;17.63;;;8.70;61.20;;;;;;5092610;28;20150;-64
2022/03/03 06:20:01;;;;;;;22.15;18.80;;;8.60;61.40;;;;;;5092502;28;20357;-62
2022/03/03 06:22:27;;;;;;;26.45;20.02;;;8.60;61.50;;;;;;5092275;28;20028;-67
2022/03/03 06:24:53;;;;;;;23.17;19.10;;;8.70;61.50;;;;;;5092807;28;20078;-70
2022/03/03 06:27:19;;;;;;;24.83;19.90;;;8.60;61.80;;;;;;5092487;28;20271;-63
2022/03/03 06:29:44;;;;;;;23.33;18.85;;;8.60;61.90;;;;;;5092770;28;20031;-65
2022/03/03 06:32:11;;;;;;;23.40;19.25;;;8.50;61.90;;;;;;5091253;28;20028;-69
2022/03/03 06:34:37;;;;;;;24.40;20.40;;;8.50;62.10;;;;;;5092373;28;20040;-62
2022/03/03 06:37:02;;;;;;;23.75;18.17;;;8.50;62.20;;;;;;5093858;28;20474;-69
2022/03/03 06:39:28;;;;;;;24.20;19.45;;;8.50;62.20;;;;;;5096362;28;20104;-62
2022/03/03 06:41:54;;;;;;;24.17;18.75;;;8.40;62.30;;;;;;5096051;28;20077;-62
2022/03/03 06:44:20;;;;;;;22.45;18.10;;;8.50;62.40;;;;;;5096376;28;20532;-62
2022/03/03 06:46:46;;;;;;;24.02;18.52;;;8.40;62.40;;;;;;5092635;28;20111;-62
2022/03/03 06:49:12;;;;;;;25.48;19.15;;;8.50;62.40;;;;;;5094732;28;20042;-65
2022/03/03 06:51:40;;;;;;;21.05;17.88;;;8.50;62.40;;;;;;5096040;28;20112;-62
2022/03/03 06:54:10;;;;;;;23.52;17.95;;;8.50;62.20;;;;;;5095634;28;20039;-62
2022/03/03 06:56:46;;;;;;;22.55;18.92;;;8.60;62.30;;;;;;5095775;28;20533;-63
2022/03/03 06:59:14;;;;;;;19.88;17.40;;;8.50;62.20;;;;;;5095908;28;20069;-62
2022/03/03 07:01:41;;;;;;;23.70;19.48;;;8.50;62.30;;;;;;5095154;28;20115;-67
2022/03/03 07:04:08;;;;;;;23.70;19.35;;;8.50;62.30;;;;;;5094284;28;20065;-71
2022/03/03 07:06:34;;;;;;;24.38;18.20;;;8.60;62.30;;;;;;5084300;28;20020;-64
2022/03/03 07:09:01;;;;;;;22.63;18.92;;;8.50;62.50;;;;;;5095665;28;20419;-63
2022/03/03 07:11:29;;;;;;;23.30;18.13;;;8.60;62.60;;;;;;5094681;28;20464;-62
2022/03/03 07:13:58;;;;;;;21.98;17.77;;;8.70;62.30;;;;;;5095438;28;20107;-62
2022/03/03 07:16:40;;;;;;;24.55;18.83;;;8.90;61.70;;;;;;5095240;28;20016;-64
2022/03/03 07:19:28;;;;;;;35.67;19.48;;;9.00;61.30;;;;;;5095128;28;20020;-61
2022/03/03 07:22:17;;;;;;;50.35;23.10;;;9.10;61.60;;;;;;5046248;28;20468;-61
2022/03/03 07:25:01;;;;;;;39.33;22.45;;;9.20;61.10;;;;;;5095211;28;20020;-64
2022/03/03 07:27:26;;;;;;;29.00;19.63;;;9.30;61.80;;;;;;5095263;28;20036;-61
2022/03/03 07:30:01;;;;;;;28.52;19.05;;;9.30;61.10;;;;;;5094168;28;20018;-63
2022/03/03 07:32:36;;;;;;;28.05;18.30;;;9.30;61.80;;;;;;5088797;28;20033;-62
2022/03/03 07:35:06;;;;;;;31.63;17.42;;;9.30;61.10;;;;;;5074378;28;20071;-67
2022/03/03 07:37:38;;;;;;;24.27;17.50;;;9.30;60.90;;;;;;5074973;28;20021;-69
2022/03/03 07:40:09;;;;;;;32.33;19.38;;;9.40;61.00;;;;;;5074562;28;20112;-64
2022/03/03 07:42:36;;;;;;;22.92;18.88;;;9.40;60.90;;;;;;5079719;28;20476;-64
2022/03/03 07:45:07;;;;;;;30.38;20.05;;;9.50;60.90;;;;;;5078015;28;20397;-65
2022/03/03 07:47:34;;;;;;;23.10;18.48;;;9.50;60.70;;;;;;5072060;28;20040;-63
2022/03/03 07:49:59;;;;;;;20.98;17.92;;;9.50;60.60;;;;;;5073338;28;20029;-64
2022/03/03 07:52:26;;;;;;;22.83;19.15;;;9.50;60.50;;;;;;5085046;28;20028;-67
2022/03/03 07:54:52;;;;;;;25.63;16.90;;;9.50;60.50;;;;;;5092828;28;20422;-67
2022/03/03 07:57:21;;;;;;;24.02;17.65;;;9.50;60.40;;;;;;5093645;28;20027;-63
2022/03/03 07:59:48;;;;;;;23.95;18.30;;;9.50;60.40;;;;;;5094427;28;20545;-63
2022/03/03 08:02:21;;;;;;;24.45;18.98;;;9.60;60.40;;;;;;5093992;28;20028;-61
2022/03/03 08:04:49;;;;;;;24.98;18.83;;;9.60;60.40;;;;;;5074142;28;20031;-66
2022/03/03 08:07:16;;;;;;;27.27;18.38;;;9.60;60.30;;;;;;5073372;28;20032;-66
2022/03/03 08:09:43;;;;;;;26.52;18.17;;;9.60;60.50;;;;;;5089496;28;20028;-62
2022/03/03 08:12:09;;;;;;;23.70;18.90;;;9.60;60.40;;;;;;5088195;28;20020;-63
2022/03/03 08:14:36;;;;;;;26.67;18.75;;;9.60;60.40;;;;;;5072795;28;20036;-67
2022/03/03 08:17:03;;;;;;;21.27;16.25;;;9.60;60.40;;;;;;5083761;28;20046;-67
2022/03/03 08:19:30;;;;;;;23.65;18.50;;;9.60;60.70;;;;;;5092487;28;20119;-66
2022/03/03 08:21:56;;;;;;;24.08;18.13;;;9.60;60.50;;;;;;5077992;28;20025;-65
2022/03/03 08:24:23;;;;;;;24.55;18.67;;;9.70;60.30;;;;;;5078085;28;20367;-69
2022/03/03 08:26:48;;;;;;;20.15;17.17;;;9.70;60.40;;;;;;5082487;28;20051;-67
2022/03/03 08:29:14;;;;;;;25.13;18.08;;;9.70;60.40;;;;;;5093814;28;20056;-67
2022/03/03 08:31:49;;;;;;;24.67;18.25;;;9.70;60.70;;;;;;5092710;28;20028;-64
2022/03/03 08:34:26;;;;;;;24.33;17.05;;;9.70;60.70;;;;;;5090568;28;20064;-64
2022/03/03 08:36:58;;;;;;;25.90;17.60;;;9.70;61.10;;;;;;5090138;28;20111;-63
2022/03/03 08:39:28;;;;;;;24.60;17.97;;;9.70;60.70;;;;;;5092399;28;20030;-67
2022/03/03 08:41:59;;;;;;;25.95;16.98;;;9.80;60.40;;;;;;5093428;28;20038;-65
2022/03/03 08:44:32;;;;;;;21.90;17.63;;;9.80;60.60;;;;;;5092532;28;20012;-66
2022/03/03 08:46:58;;;;;;;21.83;17.48;;;9.80;60.50;;;;;;5091267;28;20054;-66
2022/03/03 08:49:32;;;;;;;20.90;16.85;;;9.80;61.10;;;;;;5093741;28;20024;-64
2022/03/03 08:51:59;;;;;;;22.80;16.83;;;9.90;60.20;;;;;;5093557;28;20070;-66
2022/03/03 08:54:25;;;;;;;26.20;17.92;;;9.90;60.20;;;;;;5093590;28;20066;-62
2022/03/03 08:56:50;;;;;;;23.27;17.48;;;9.90;60.20;;;;;;5093440;28;20028;-62
2022/03/03 08:59:16;;;;;;;22.67;17.08;;;9.90;60.10;;;;;;5093663;28;20027;-62
2022/03/03 09:01:42;;;;;;;21.48;17.15;;;9.90;60.10;;;;;;5093095;28;20515;-61
2022/03/03 09:04:07;;;;;;;23.77;16.55;;;9.90;60.30;;;;;;5093585;28;20045;-62
2022/03/03 09:06:33;;;;;;;26.27;17.88;;;10.00;60.30;;;;;;5093157;28;20468;-61
2022/03/03 09:08:59;;;;;;;25.88;16.42;;;10.00;60.50;;;;;;5093521;28;20028;-62
2022/03/03 09:11:24;;;;;;;23.20;16.65;;;10.00;60.10;;;;;;5075091;28;20023;-62
2022/03/03 09:13:50;;;;;;;26.38;16.13;;;10.00;60.10;;;;;;5093400;28;20028;-62
2022/03/03 09:16:17;;;;;;;19.52;15.48;;;10.00;60.40;;;;;;5093010;28;20028;-62
2022/03/03 09:18:45;;;;;;;22.15;15.50;;;10.00;59.90;;;;;;5093436;28;20016;-62
2022/03/03 09:21:10;;;;;;;20.60;15.52;;;10.10;59.30;;;;;;5093179;28;20065;-67
2022/03/03 09:23:36;;;;;;;21.73;16.58;;;10.10;58.90;;;;;;5093340;28;20024;-64
2022/03/03 09:26:01;;;;;;;21.30;15.32;;;10.10;59.40;;;;;;5093158;28;20377;-62
2022/03/03 09:28:27;;;;;;;26.80;17.15;;;10.20;59.00;;;;;;5093169;28;20419;-66
2022/03/03 09:30:53;;;;;;;21.73;17.17;;;10.20;58.60;;;;;;5092601;28;20024;-65
2022/03/03 09:33:18;;;;;;;23.15;17.17;;;10.20;58.70;;;;;;5093237;28;20073;-62
2022/03/03 09:35:44;;;;;;;24.35;16.67;;;10.20;58.40;;;;;;5092713;28;20036;-62
2022/03/03 09:38:09;;;;;;;23.08;17.02;;;10.20;58.50;;;;;;5093390;28;20110;-62
2022/03/03 09:40:35;;;;;;;20.67;16.80;;;10.20;58.30;;;;;;5093012;28;20052;-62
2022/03/03 09:43:04;;;;;;;21.90;16.38;;;10.20;58.60;;;;;;5093053;28;20472;-64
2022/03/03 09:45:31;;;;;;;23.63;17.25;;;10.20;58.90;;;;;;5074357;28;20032;-62
2022/03/03 09:47:57;;;;;;;20.20;16.50;;;10.30;58.90;;;;;;5092947;28;20357;-63
2022/03/03 09:50:25;;;;;;;18.88;16.40;;;10.30;59.00;;;;;;5092994;28;20480;-62
2022/03/03 09:52:51;;;;;;;20.23;16.42;;;10.30;59.60;;;;;;5092855;28;20024;-66
2022/03/03 09:55:17;;;;;;;22.90;16.92;;;10.20;59.60;;;;;;5075103;28;20024;-62
2022/03/03 09:57:42;;;;;;;21.02;16.45;;;10.30;59.40;;;;;;5092353;28;20058;-62
2022/03/03 10:00:11;;;;;;;23.48;17.58;;;10.30;59.50;;;;;;5092941;28;20467;-64
2022/03/03 10:03:09;;;;;;;25.08;17.40;;;10.30;59.60;;;;;;5092991;28;20024;-62
2022/03/03 10:05:38;;;;;;;21.58;17.23;;;10.40;59.60;;;;;;5092817;28;20043;-62
2022/03/03 10:08:12;;;;;;;22.13;18.05;;;10.40;59.70;;;;;;5093052;28;20085;-62
2022/03/03 10:10:40;;;;;;;23.75;17.90;;;10.40;60.00;;;;;;5092849;28;20013;-62
2022/03/03 10:13:06;;;;;;;25.50;18.25;;;10.40;60.20;;;;;;5096056;28;20103;-62
2022/03/03 10:15:33;;;;;;;28.33;18.27;;;10.40;60.10;;;;;;5096645;28;20016;-63
2022/03/03 10:18:04;;;;;;;21.38;17.08;;;10.40;60.70;;;;;;5096489;28;20737;-62
2022/03/03 10:20:37;;;;;;;23.70;17.33;;;10.30;61.10;;;;;;5096625;28;20028;-62
2022/03/03 10:23:05;;;;;;;;;;;10.40;61.00;;;;;;5096643;28;20463;-63
2022/03/03 10:25:37;;;;;;;22.42;17.13;;;10.40;61.10;;;;;;5096474;28;19904;-64
2022/03/03 10:28:33;;;;;;;22.27;16.80;;;10.50;61.20;;;;;;5077848;28;20502;-66
2022/03/03 10:31:06;;;;;;;22.90;17.77;;;10.50;61.20;;;;;;5087829;28;20036;-62
2022/03/03 10:33:34;;;;;;;25.38;16.95;;;10.50;61.50;;;;;;5096360;28;20032;-64
2022/03/03 10:36:01;;;;;;;22.63;18.17;;;10.50;61.40;;;;;;5095821;28;20036;-63
2022/03/03 10:38:27;;;;;;;24.98;17.73;;;10.60;61.30;;;;;;5096121;28;20100;-62
2022/03/03 10:40:53;;;;;;;22.17;16.88;;;10.50;61.30;;;;;;5096141;28;20052;-62
2022/03/03 10:43:18;;;;;;;25.48;17.92;;;10.60;61.10;;;;;;5095813;28;20024;-67
2022/03/03 10:45:56;;;;;;;23.02;17.50;;;10.60;61.00;;;;;;5096000;28;20028;-62
2022/03/03 10:48:23;;;;;;;23.80;18.63;;;10.60;61.50;;;;;;5096019;28;20028;-63
2022/03/03 10:50:51;;;;;;;23.70;18.88;;;10.60;61.70;;;;;;5096093;28;20023;-62
2022/03/03 10:53:18;;;;;;;24.05;18.77;;;10.70;61.80;;;;;;5095986;28;20150;-64
2022/03/03 10:56:04;;;;;;;24.60;18.55;;;10.70;60.60;;;;;;5095739;28;20105;-67
2022/03/03 10:58:50;;;;;;;30.52;19.63;;;10.70;61.00;;;;;;5095694;28;20071;-63
2022/03/03 11:01:25;;;;;;;23.40;17.98;;;10.70;61.00;;;;;;5095908;28;20475;-66
2022/03/03 11:03:51;;;;;;;20.23;15.45;;;10.70;60.90;;;;;;5095545;28;20020;-64
2022/03/03 11:06:18;;;;;;;24.27;18.60;;;10.70;61.70;;;;;;5095395;28;20060;-62
2022/03/03 11:08:44;;;;;;;23.73;19.17;;;10.70;60.30;;;;;;5077386;28;20063;-63
2022/03/03 11:11:10;;;;;;;23.63;18.00;;;10.80;59.80;;;;;;5095469;28;20035;-64
2022/03/03 11:13:38;;;;;;;24.60;18.15;;;10.80;59.80;;;;;;5095381;28;20023;-67
2022/03/03 11:16:04;;;;;;;22.30;18.15;;;10.80;60.20;;;;;;5095592;28;20024;-62
2022/03/03 11:18:30;;;;;;;21.88;17.75;;;10.80;60.20;;;;;;5095461;28;20024;-64
2022/03/03 11:20:57;;;;;;;22.52;17.65;;;10.80;59.70;;;;;;5095540;28;20044;-62
2022/03/03 11:23:23;;;;;;;22.02;17.23;;;10.80;59.30;;;;;;5094457;28;20054;-63
2022/03/03 11:25:51;;;;;;;22.75;17.33;;;10.80;58.80;;;;;;5076902;28;20020;-62
2022/03/03 11:28:19;;;;;;;23.70;17.70;;;10.90;58.10;;;;;;5095078;28;20044;-63
2022/03/03 11:30:46;;;;;;;26.33;17.83;;;10.90;58.30;;;;;;5095366;28;20153;-63
2022/03/03 11:33:27;;;;;;;21.60;17.60;;;10.80;58.30;;;;;;5095229;28;20020;-64
2022/03/03 11:35:58;;;;;;;26.13;18.50;;;10.80;58.60;;;;;;5094613;28;20039;-63
2022/03/03 11:38:27;;;;;;;27.55;18.05;;;10.90;58.40;;;;;;5095205;28;20063;-62
2022/03/03 11:41:01;;;;;;;35.75;19.92;;;10.90;58.90;;;;;;5094706;28;20020;-62
2022/03/03 11:43:27;;;;;;;23.83;16.67;;;11.00;59.00;;;;;;5095001;28;20099;-63
2022/03/03 11:45:55;;;;;;;25.13;19.08;;;11.00;59.40;;;;;;5094910;28;20028;-63
2022/03/03 11:48:22;;;;;;;22.95;18.15;;;11.00;59.20;;;;;;5094710;28;20043;-63
2022/03/03 11:50:53;;;;;;;22.88;19.00;;;11.00;59.60;;;;;;5094886;28;20020;-64
2022/03/03 11:53:24;;;;;;;22.35;18.63;;;11.10;59.70;;;;;;5094908;28;20024;-67
2022/03/03 11:56:00;;;;;;;20.63;15.10;;;11.00;59.80;;;;;;5094449;28;20050;-66
2022/03/03 11:58:38;;;;;;;22.80;18.45;;;11.00;60.60;;;;;;5094758;28;20020;-65
2022/03/03 12:01:10;;;;;;;28.85;18.52;;;11.10;59.20;;;;;;5095054;28;20016;-63
2022/03/03 12:03:59;;;;;;;27.77;19.00;;;11.10;59.40;;;;;;5094696;28;20027;-62
2022/03/03 12:06:47;;;;;;;27.13;18.48;;;11.20;59.90;;;;;;5094547;28;20523;-64
2022/03/03 12:09:18;;;;;;;26.98;19.05;;;11.20;60.00;;;;;;5094066;28;20035;-63
2022/03/03 12:11:44;;;;;;;23.52;17.58;;;11.20;60.10;;;;;;5094638;28;20471;-62
2022/03/03 12:14:29;;;;;;;27.52;19.52;;;11.20;60.60;;;;;;5094469;28;20059;-62
2022/03/03 12:17:33;;;;;;;25.85;19.83;;;11.20;60.80;;;;;;5094266;28;20028;-62
2022/03/03 12:20:23;;;;;;;24.70;20.27;;;11.30;60.60;;;;;;5094238;28;20031;-66
2022/03/03 12:23:10;;;;;;;27.05;19.05;;;11.30;61.10;;;;;;5094133;28;20085;-62
2022/03/03 12:25:47;;;;;;;26.42;21.20;;;11.30;61.30;;;;;;5094087;28;20026;-62
2022/03/03 12:28:37;;;;;;;25.95;19.77;;;11.30;61.60;;;;;;5094008;28;20028;-67
2022/03/03 12:31:30;;;;;;;28.65;20.80;;;11.30;61.70;;;;;;5094012;28;20464;-64
2022/03/03 12:34:02;;;;;;;28.88;20.13;;;11.40;61.90;;;;;;5093016;28;20070;-66
2022/03/03 12:36:31;;;;;;;25.35;20.15;;;11.40;62.10;;;;;;5093986;28;20073;-67
2022/03/03 12:38:57;;;;;;;28.48;20.90;;;11.40;62.00;;;;;;5093805;28;20028;-62